LEMD

Adolfo Suárez Madrid–Barajas Airport

Madrid, Spain
TAF LEMD 260500Z 2606/2712 05006KT CAVOK TX26/2615Z TN10/2606Z PROB40 TEMPO 2612/2619 FEW045TCU PROB40 TEMPO 2612/2706 22008G18KT BECMG 2710/2712 22010KT
Issued Valid From Valid To
Apr-26 @ 05:00 UTC
(an hour ago)
Apr-26 @ 06:00 UTC
(2 minutes ago)
Apr-27 @ 12:00 UTC
(-1 days ago)
Apr-26 @ 06:00 to Apr-27 @ 10:00
TAF LEMD 260500Z 2606/2712 05006KT CAVOK TX26/2615Z TN10/2606Z
Wind Visibility Clouds
50° at 6 knots 10,000+ meters
  • No significant clouds
Temporary  (Probability 40%) Apr-26 @ 12:00 to Apr-26 @ 19:00
PROB40 TEMPO 2612/2706 22008G18KT
Clouds
  • Few at 4,500' AGL
Temporary  (Probability 40%) Apr-26 @ 12:00 to Apr-27 @ 06:00
PROB40 TEMPO 2612/2706 22008G18KT
Wind
220° at 8 knots
 Gusting to 18 knots
Becoming Apr-27 @ 10:00 to Apr-27 @ 12:00
BECMG 2710/2712 22010KT
Wind Visibility Clouds
220° at 10 knots 10,000+ meters
  • No significant clouds
TAF LEMD 260500Z 2606/2712 05006KT CAVOK TX26/2615Z TN10/2606Z PROB40 TEMPO 2612/2619 FEW045TCU PROB40 TEMPO 2612/2706 22008G18KT BECMG 2710/2712 22010KT
Issued Apr-26 @ 05:00 UTC
(an hour ago)
Valid From Apr-26 @ 06:00 UTC
(2 minutes ago)
Valid To Apr-27 @ 12:00 UTC
(-1 days ago)
Apr-26 @ 06:00 - Apr-27 @ 10:00
Wind Visibility
50° at 6 knots 10,000+ meters
Clouds
  • No significant clouds
Probability 40% Temporary Apr-26 @ 12:00 - Apr-26 @ 19:00
Clouds
  • Few at 4,500' AGL
Probability 40% Temporary Apr-26 @ 12:00 - Apr-27 @ 06:00
Wind
220° at 8 knots
 Gusting to 18 knots
Becoming Apr-27 @ 10:00 - Apr-27 @ 12:00
Wind Visibility
220° at 10 knots 10,000+ meters
Clouds
  • No significant clouds